BS12 weather

Ghedi Air Base
Ghedi, Lombardy, Italy

Public forecast

Using degrees Celsius for public forecast. Weather courtesy of forecast.io.

Current aviation weather report (METAR) for Ghedi Air Base

Retrieved 2019/10/14 18:55 UTC (13 minutes ago):

LIPL 141855Z 09005KT 3000 BR SCT050 SCT070 19/15 Q1018 RMK BKN VIS MIN 3000 WIND THR31 08004KT WIND THR13 09004KT BLK YLO

Aviation forecast (TAF) for Ghedi Air Base

Forecast is more than 12 hours old.

Retrieved 2019/07/15 15:33 UTC (3 months ago):

TAF TAF LIPL 151400Z 1515/1603 VRB03KT 9999 SCT040